sensor_id;sensor_type;location;lat;lon;timestamp;pressure;altitude;pressure_sealevel;temperature;humidity
46846;BME280;33947;46.804;134.252;2023-06-22T00:00:45;100234.88;;;19.38;81.37
46846;BME280;33947;46.804;134.252;2023-06-22T00:04:00;100255.03;;;19.58;80.96
46846;BME280;33947;46.804;134.252;2023-06-22T00:07:21;100263.75;;;19.75;80.68
46846;BME280;33947;46.804;134.252;2023-06-22T00:10:43;100262.78;;;19.76;81.99
46846;BME280;33947;46.804;134.252;2023-06-22T00:13:54;100228.75;;;20.01;80.29
46846;BME280;33947;46.804;134.252;2023-06-22T00:17:02;100252.41;;;20.34;78.90
46846;BME280;33947;46.804;134.252;2023-06-22T00:20:09;100225.53;;;20.33;78.55
46846;BME280;33947;46.804;134.252;2023-06-22T00:23:19;100192.44;;;20.31;77.62
46846;BME280;33947;46.804;134.252;2023-06-22T00:26:57;100186.06;;;20.32;77.29
46846;BME280;33947;46.804;134.252;2023-06-22T00:30:09;100251.22;;;20.63;77.04
46846;BME280;33947;46.804;134.252;2023-06-22T00:33:18;100242.22;;;20.51;77.39
46846;BME280;33947;46.804;134.252;2023-06-22T00:36:25;100246.59;;;20.65;77.20
46846;BME280;33947;46.804;134.252;2023-06-22T00:39:37;100217.53;;;20.44;76.24
46846;BME280;33947;46.804;134.252;2023-06-22T00:42:43;100254.47;;;21.17;75.13
46846;BME280;33947;46.804;134.252;2023-06-22T00:45:55;100256.53;;;21.60;72.85
46846;BME280;33947;46.804;134.252;2023-06-22T00:49:12;100223.19;;;21.25;72.45
46846;BME280;33947;46.804;134.252;2023-06-22T00:52:24;100255.88;;;21.34;73.00
46846;BME280;33947;46.804;134.252;2023-06-22T00:55:44;100139.91;;;20.72;71.70
46846;BME280;33947;46.804;134.252;2023-06-22T00:59:00;100257.25;;;21.98;70.15
46846;BME280;33947;46.804;134.252;2023-06-22T01:02:18;100257.28;;;22.76;68.08
46846;BME280;33947;46.804;134.252;2023-06-22T01:05:35;100217.09;;;22.93;65.70
46846;BME280;33947;46.804;134.252;2023-06-22T01:08:57;100270.44;;;23.46;64.22
46846;BME280;33947;46.804;134.252;2023-06-22T01:12:13;100243.94;;;23.50;63.81
46846;BME280;33947;46.804;134.252;2023-06-22T01:15:46;100171.13;;;23.24;64.06
46846;BME280;33947;46.804;134.252;2023-06-22T01:20:23;100203.59;;;22.81;64.87
46846;BME280;33947;46.804;134.252;2023-06-22T01:27:03;100208.22;;;22.58;66.67
46846;BME280;33947;46.804;134.252;2023-06-22T01:30:14;100229.69;;;23.15;66.95
46846;BME280;33947;46.804;134.252;2023-06-22T01:33:26;100255.56;;;23.40;65.79
46846;BME280;33947;46.804;134.252;2023-06-22T01:36:38;100251.94;;;23.19;65.33
46846;BME280;33947;46.804;134.252;2023-06-22T01:39:45;100230.03;;;22.89;66.08
46846;BME280;33947;46.804;134.252;2023-06-22T01:43:06;100220.28;;;22.98;65.48
46846;BME280;33947;46.804;134.252;2023-06-22T01:46:15;100252.22;;;23.16;65.17
46846;BME280;33947;46.804;134.252;2023-06-22T01:49:23;100217.34;;;22.90;65.90
46846;BME280;33947;46.804;134.252;2023-06-22T01:52:34;100201.81;;;22.92;65.31
46846;BME280;33947;46.804;134.252;2023-06-22T01:55:43;100243.44;;;23.23;64.13
46846;BME280;33947;46.804;134.252;2023-06-22T01:59:05;100260.06;;;23.73;63.11
46846;BME280;33947;46.804;134.252;2023-06-22T02:02:20;100156.34;;;23.49;62.31
46846;BME280;33947;46.804;134.252;2023-06-22T02:06:30;100077.00;;;22.95;62.70
46846;BME280;33947;46.804;134.252;2023-06-22T02:10:22;100229.75;;;23.67;63.68
46846;BME280;33947;46.804;134.252;2023-06-22T02:13:37;100159.81;;;23.19;65.06
46846;BME280;33947;46.804;134.252;2023-06-22T02:18:07;100089.75;;;22.62;65.91
46846;BME280;33947;46.804;134.252;2023-06-22T02:22:12;100082.25;;;22.54;65.18
46846;BME280;33947;46.804;134.252;2023-06-22T02:26:17;100220.56;;;23.16;67.10
46846;BME280;33947;46.804;134.252;2023-06-22T02:40:10;100222.53;;;23.78;64.47
46846;BME280;33947;46.804;134.252;2023-06-22T03:08:20;100097.84;;;23.04;65.06
46846;BME280;33947;46.804;134.252;2023-06-22T03:12:45;100107.97;;;23.02;64.30
46846;BME280;33947;46.804;134.252;2023-06-22T03:15:58;100225.34;;;23.45;65.92
46846;BME280;33947;46.804;134.252;2023-06-22T03:19:06;100207.81;;;23.70;65.04
46846;BME280;33947;46.804;134.252;2023-06-22T03:22:16;100201.69;;;23.78;62.15
46846;BME280;33947;46.804;134.252;2023-06-22T03:25:42;100046.09;;;22.55;62.75
46846;BME280;33947;46.804;134.252;2023-06-22T03:29:13;100065.50;;;22.81;61.57
46846;BME280;33947;46.804;134.252;2023-06-22T03:32:23;100221.00;;;23.85;61.40
46846;BME280;33947;46.804;134.252;2023-06-22T03:35:30;100224.31;;;23.98;60.96
46846;BME280;33947;46.804;134.252;2023-06-22T03:38:37;100231.22;;;24.03;60.64
46846;BME280;33947;46.804;134.252;2023-06-22T03:41:49;100201.69;;;23.78;60.62
46846;BME280;33947;46.804;134.252;2023-06-22T03:44:55;100193.19;;;23.62;60.30
46846;BME280;33947;46.804;134.252;2023-06-22T03:48:04;100238.94;;;23.76;61.17
46846;BME280;33947;46.804;134.252;2023-06-22T03:51:15;100245.97;;;23.79;61.71
46846;BME280;33947;46.804;134.252;2023-06-22T03:54:21;100247.22;;;23.75;62.12
46846;BME280;33947;46.804;134.252;2023-06-22T03:57:30;100220.72;;;23.36;62.33
46846;BME280;33947;46.804;134.252;2023-06-22T04:00:36;100253.25;;;23.36;61.98
46846;BME280;33947;46.804;134.252;2023-06-22T04:03:42;100241.28;;;23.06;61.86
46846;BME280;33947;46.804;134.252;2023-06-22T04:06:49;100212.91;;;22.89;60.90
46846;BME280;33947;46.804;134.252;2023-06-22T04:09:55;100250.91;;;22.98;60.40
46846;BME280;33947;46.804;134.252;2023-06-22T04:13:02;100249.00;;;22.89;60.95
46846;BME280;33947;46.804;134.252;2023-06-22T04:16:08;100248.38;;;22.86;60.82
46846;BME280;33947;46.804;134.252;2023-06-22T04:19:15;100242.41;;;22.70;61.10
46846;BME280;33947;46.804;134.252;2023-06-22T04:22:23;100228.13;;;22.68;61.15
46846;BME280;33947;46.804;134.252;2023-06-22T04:25:29;100244.22;;;22.81;61.20
46846;BME280;33947;46.804;134.252;2023-06-22T04:28:36;100241.41;;;22.72;61.70
46846;BME280;33947;46.804;134.252;2023-06-22T04:31:42;100194.81;;;22.45;61.99
46846;BME280;33947;46.804;134.252;2023-06-22T04:34:48;100239.31;;;22.75;62.34
46846;BME280;33947;46.804;134.252;2023-06-22T04:37:58;100233.06;;;22.75;62.16
46846;BME280;33947;46.804;134.252;2023-06-22T04:41:04;100188.19;;;22.49;62.03
46846;BME280;33947;46.804;134.252;2023-06-22T04:44:18;100240.91;;;22.78;61.71
46846;BME280;33947;46.804;134.252;2023-06-22T04:47:31;100231.91;;;22.77;61.98
46846;BME280;33947;46.804;134.252;2023-06-22T04:50:37;100228.13;;;22.68;62.64
46846;BME280;33947;46.804;134.252;2023-06-22T04:53:49;100193.34;;;22.52;62.50
46846;BME280;33947;46.804;134.252;2023-06-22T04:56:55;100237.06;;;22.80;62.64
46846;BME280;33947;46.804;134.252;2023-06-22T05:00:07;100159.56;;;22.24;62.38
46846;BME280;33947;46.804;134.252;2023-06-22T05:03:29;100250.34;;;22.51;63.13
46846;BME280;33947;46.804;134.252;2023-06-22T05:06:36;100222.75;;;22.34;63.03
46846;BME280;33947;46.804;134.252;2023-06-22T05:09:44;100234.69;;;22.43;63.60
46846;BME280;33947;46.804;134.252;2023-06-22T05:12:54;100226.47;;;22.45;63.42
46846;BME280;33947;46.804;134.252;2023-06-22T05:16:00;100237.78;;;22.50;63.62
46846;BME280;33947;46.804;134.252;2023-06-22T05:19:10;100263.22;;;22.70;63.74
46846;BME280;33947;46.804;134.252;2023-06-22T05:22:19;100225.56;;;22.44;64.14
46846;BME280;33947;46.804;134.252;2023-06-22T05:25:26;100252.03;;;22.63;64.16
46846;BME280;33947;46.804;134.252;2023-06-22T05:28:35;100251.91;;;22.53;65.14
46846;BME280;33947;46.804;134.252;2023-06-22T05:31:42;100234.72;;;22.54;65.09
46846;BME280;33947;46.804;134.252;2023-06-22T05:34:52;100216.50;;;22.34;65.24
46846;BME280;33947;46.804;134.252;2023-06-22T05:37:59;100207.44;;;22.23;65.63
46846;BME280;33947;46.804;134.252;2023-06-22T05:41:06;100234.81;;;22.41;65.89
46846;BME280;33947;46.804;134.252;2023-06-22T05:44:12;100233.47;;;22.36;66.40
46846;BME280;33947;46.804;134.252;2023-06-22T05:47:19;100232.38;;;22.27;67.11
46846;BME280;33947;46.804;134.252;2023-06-22T05:50:26;100224.63;;;22.11;65.95
46846;BME280;33947;46.804;134.252;2023-06-22T05:53:33;100191.22;;;21.66;65.93
46846;BME280;33947;46.804;134.252;2023-06-22T05:56:40;100220.78;;;21.57;67.33
46846;BME280;33947;46.804;134.252;2023-06-22T05:59:47;100253.84;;;21.60;69.09
46846;BME280;33947;46.804;134.252;2023-06-22T06:02:53;100242.13;;;21.37;69.31
46846;BME280;33947;46.804;134.252;2023-06-22T06:06:00;100169.41;;;20.87;69.94
46846;BME280;33947;46.804;134.252;2023-06-22T06:09:08;100099.00;;;20.30;72.46
46846;BME280;33947;46.804;134.252;2023-06-22T06:12:15;100121.09;;;20.35;73.34
46846;BME280;33947;46.804;134.252;2023-06-22T06:15:21;100190.72;;;20.78;72.20
46846;BME280;33947;46.804;134.252;2023-06-22T06:18:28;100084.22;;;20.22;73.04
46846;BME280;33947;46.804;134.252;2023-06-22T06:21:35;100197.31;;;20.74;74.29
46846;BME280;33947;46.804;134.252;2023-06-22T06:24:41;100246.19;;;21.07;74.22
46846;BME280;33947;46.804;134.252;2023-06-22T06:27:50;100229.75;;;21.10;74.23
46846;BME280;33947;46.804;134.252;2023-06-22T06:30:58;100206.50;;;20.96;72.18
46846;BME280;33947;46.804;134.252;2023-06-22T06:34:04;100096.63;;;20.49;71.00
46846;BME280;33947;46.804;134.252;2023-06-22T06:37:08;100127.69;;;20.55;70.72
46846;BME280;33947;46.804;134.252;2023-06-22T06:40:17;100237.16;;;21.19;72.38
46846;BME280;33947;46.804;134.252;2023-06-22T06:43:23;100191.00;;;20.87;72.41
46846;BME280;33947;46.804;134.252;2023-06-22T06:46:30;100235.16;;;21.10;74.03
46846;BME280;33947;46.804;134.252;2023-06-22T06:49:36;100212.84;;;20.84;75.65
46846;BME280;33947;46.804;134.252;2023-06-22T06:52:43;100221.34;;;20.90;76.88
46846;BME280;33947;46.804;134.252;2023-06-22T06:55:55;100218.66;;;20.90;77.45
46846;BME280;33947;46.804;134.252;2023-06-22T06:59:01;100227.34;;;20.94;77.96
46846;BME280;33947;46.804;134.252;2023-06-22T07:02:11;100214.47;;;20.86;77.17
46846;BME280;33947;46.804;134.252;2023-06-22T07:05:17;100222.09;;;20.92;78.04
46846;BME280;33947;46.804;134.252;2023-06-22T07:08:24;100233.41;;;20.98;77.63
46846;BME280;33947;46.804;134.252;2023-06-22T07:11:30;100239.59;;;20.87;78.30
46846;BME280;33947;46.804;134.252;2023-06-22T07:14:37;100234.53;;;20.82;78.79
46846;BME280;33947;46.804;134.252;2023-06-22T07:17:49;100231.66;;;20.72;78.92
46846;BME280;33947;46.804;134.252;2023-06-22T07:20:58;100228.88;;;20.61;79.44
46846;BME280;33947;46.804;134.252;2023-06-22T07:24:10;100223.19;;;20.52;79.46
46846;BME280;33947;46.804;134.252;2023-06-22T07:27:17;100231.44;;;20.51;79.17
46846;BME280;33947;46.804;134.252;2023-06-22T07:30:27;100182.91;;;20.01;78.14
46846;BME280;33947;46.804;134.252;2023-06-22T07:33:35;100225.53;;;20.33;78.88
46846;BME280;33947;46.804;134.252;2023-06-22T07:36:40;100214.84;;;20.31;78.85
46846;BME280;33947;46.804;134.252;2023-06-22T07:43:27;100103.03;;;19.74;77.12
46846;BME280;33947;46.804;134.252;2023-06-22T07:47:47;100097.19;;;19.80;76.49
46846;BME280;33947;46.804;134.252;2023-06-22T07:51:00;100253.56;;;20.80;76.29
46846;BME280;33947;46.804;134.252;2023-06-22T07:54:09;100215.97;;;20.53;76.86
46846;BME280;33947;46.804;134.252;2023-06-22T07:57:18;100237.72;;;20.63;77.31
46846;BME280;33947;46.804;134.252;2023-06-22T08:00:25;100183.69;;;20.27;78.27
46846;BME280;33947;46.804;134.252;2023-06-22T08:03:31;100214.16;;;20.41;79.38
46846;BME280;33947;46.804;134.252;2023-06-22T08:06:38;100245.63;;;20.66;79.28
46846;BME280;33947;46.804;134.252;2023-06-22T08:09:47;100252.84;;;20.65;80.51
46846;BME280;33947;46.804;134.252;2023-06-22T08:12:54;100247.38;;;20.54;80.84
46846;BME280;33947;46.804;134.252;2023-06-22T08:16:01;100259.31;;;20.63;81.39
46846;BME280;33947;46.804;134.252;2023-06-22T08:19:08;100260.09;;;20.65;81.61
46846;BME280;33947;46.804;134.252;2023-06-22T08:22:15;100270.09;;;20.63;81.94
46846;BME280;33947;46.804;134.252;2023-06-22T08:25:27;100237.09;;;20.35;82.53
46846;BME280;33947;46.804;134.252;2023-06-22T08:28:36;100259.94;;;20.42;82.82
46846;BME280;33947;46.804;134.252;2023-06-22T08:31:44;100266.63;;;20.36;83.38
46846;BME280;33947;46.804;134.252;2023-06-22T08:34:55;100268.94;;;20.30;83.37
46846;BME280;33947;46.804;134.252;2023-06-22T08:38:05;100240.72;;;20.09;83.64
46846;BME280;33947;46.804;134.252;2023-06-22T08:41:09;100261.94;;;20.14;84.05
46846;BME280;33947;46.804;134.252;2023-06-22T08:44:18;100282.53;;;20.15;84.45
46846;BME280;33947;46.804;134.252;2023-06-22T08:47:27;100240.94;;;19.93;84.31
46846;BME280;33947;46.804;134.252;2023-06-22T08:50:34;100276.50;;;20.12;84.01
46846;BME280;33947;46.804;134.252;2023-06-22T08:53:42;100259.38;;;20.00;84.13
46846;BME280;33947;46.804;134.252;2023-06-22T08:56:53;100279.84;;;20.15;84.43
46846;BME280;33947;46.804;134.252;2023-06-22T08:59:59;100300.00;;;20.22;84.52
46846;BME280;33947;46.804;134.252;2023-06-22T09:03:11;100259.91;;;19.92;85.23
46846;BME280;33947;46.804;134.252;2023-06-22T09:06:18;100290.97;;;19.98;85.78
46846;BME280;33947;46.804;134.252;2023-06-22T09:09:25;100286.03;;;19.91;86.36
46846;BME280;33947;46.804;134.252;2023-06-22T09:12:33;100281.66;;;19.76;86.75
46846;BME280;33947;46.804;134.252;2023-06-22T09:15:39;100294.59;;;19.71;87.43
46846;BME280;33947;46.804;134.252;2023-06-22T09:18:49;100305.59;;;19.67;87.03
46846;BME280;33947;46.804;134.252;2023-06-22T09:21:55;100314.84;;;19.63;86.84
46846;BME280;33947;46.804;134.252;2023-06-22T09:25:02;100306.00;;;19.48;87.73
46846;BME280;33947;46.804;134.252;2023-06-22T09:28:12;100290.56;;;19.37;88.03
46846;BME280;33947;46.804;134.252;2023-06-22T09:31:21;100302.97;;;19.40;88.53
46846;BME280;33947;46.804;134.252;2023-06-22T09:34:31;100286.25;;;19.35;88.79
46846;BME280;33947;46.804;134.252;2023-06-22T09:37:45;100271.34;;;19.16;89.64
46846;BME280;33947;46.804;134.252;2023-06-22T09:40:54;100266.38;;;19.10;89.06
46846;BME280;33947;46.804;134.252;2023-06-22T09:44:04;100305.50;;;19.29;89.71
46846;BME280;33947;46.804;134.252;2023-06-22T09:47:30;100309.91;;;19.17;89.88
46846;BME280;33947;46.804;134.252;2023-06-22T09:51:19;100310.97;;;19.14;90.06
46846;BME280;33947;46.804;134.252;2023-06-22T09:55:49;100212.28;;;18.31;91.50
46846;BME280;33947;46.804;134.252;2023-06-22T10:00:07;100232.63;;;18.49;90.82
46846;BME280;33947;46.804;134.252;2023-06-22T10:04:02;100271.13;;;18.64;90.57
46846;BME280;33947;46.804;134.252;2023-06-22T10:07:17;100291.75;;;18.78;90.69
46846;BME280;33947;46.804;134.252;2023-06-22T10:10:38;100292.38;;;18.82;90.07
46846;BME280;33947;46.804;134.252;2023-06-22T10:14:08;100317.28;;;18.86;90.80
46846;BME280;33947;46.804;134.252;2023-06-22T10:17:47;100325.16;;;18.89;90.91
46846;BME280;33947;46.804;134.252;2023-06-22T10:21:09;100319.63;;;18.77;90.92
46846;BME280;33947;46.804;134.252;2023-06-22T10:24:29;100285.47;;;18.50;91.40
46846;BME280;33947;46.804;134.252;2023-06-22T10:27:54;100303.22;;;18.53;91.41
46846;BME280;33947;46.804;134.252;2023-06-22T10:31:25;100329.44;;;18.64;91.28
46846;BME280;33947;46.804;134.252;2023-06-22T10:35:16;100238.59;;;17.97;91.31
46846;BME280;33947;46.804;134.252;2023-06-22T10:43:56;100198.69;;;17.61;91.42
46846;BME280;33947;46.804;134.252;2023-06-22T10:48:27;100290.69;;;18.10;92.36
46846;BME280;33947;46.804;134.252;2023-06-22T10:51:37;100335.03;;;18.46;91.48
46846;BME280;33947;46.804;134.252;2023-06-22T10:54:48;100333.50;;;18.42;91.20
46846;BME280;33947;46.804;134.252;2023-06-22T10:57:58;100328.69;;;18.33;91.47
46846;BME280;33947;46.804;134.252;2023-06-22T11:01:08;100331.47;;;18.31;92.04
46846;BME280;33947;46.804;134.252;2023-06-22T11:04:34;100334.34;;;18.14;92.97
46846;BME280;33947;46.804;134.252;2023-06-22T11:07:42;100335.50;;;18.10;93.40
46846;BME280;33947;46.804;134.252;2023-06-22T11:10:51;100343.50;;;18.11;93.40
46846;BME280;33947;46.804;134.252;2023-06-22T11:13:59;100328.19;;;17.97;93.33
46846;BME280;33947;46.804;134.252;2023-06-22T11:17:05;100334.78;;;17.91;93.93
46846;BME280;33947;46.804;134.252;2023-06-22T11:20:14;100318.84;;;17.74;93.91
46846;BME280;33947;46.804;134.252;2023-06-22T11:23:21;100346.69;;;17.87;94.22
46846;BME280;33947;46.804;134.252;2023-06-22T11:26:28;100348.94;;;17.64;95.28
46846;BME280;33947;46.804;134.252;2023-06-22T11:29:34;100350.03;;;17.46;97.26
46846;BME280;33947;46.804;134.252;2023-06-22T11:32:42;100343.06;;;17.58;96.43
46846;BME280;33947;46.804;134.252;2023-06-22T11:35:48;100350.97;;;17.45;97.28
46846;BME280;33947;46.804;134.252;2023-06-22T11:38:55;100340.63;;;17.23;98.59
46846;BME280;33947;46.804;134.252;2023-06-22T11:42:02;100343.88;;;17.44;97.45
46846;BME280;33947;46.804;134.252;2023-06-22T11:45:09;100347.84;;;17.53;96.35
46846;BME280;33947;46.804;134.252;2023-06-22T11:48:14;100364.56;;;17.58;94.92
46846;BME280;33947;46.804;134.252;2023-06-22T11:51:21;100367.66;;;17.66;93.79
46846;BME280;33947;46.804;134.252;2023-06-22T11:54:27;100367.47;;;17.69;93.34
46846;BME280;33947;46.804;134.252;2023-06-22T11:57:35;100372.38;;;17.77;92.53
46846;BME280;33947;46.804;134.252;2023-06-22T12:00:40;100331.56;;;17.56;92.35
46846;BME280;33947;46.804;134.252;2023-06-22T12:03:58;100379.28;;;17.67;92.97
46846;BME280;33947;46.804;134.252;2023-06-22T12:07:05;100350.22;;;17.43;93.61
46846;BME280;33947;46.804;134.252;2023-06-22T12:10:12;100383.44;;;17.56;93.97
46846;BME280;33947;46.804;134.252;2023-06-22T12:13:20;100386.03;;;17.58;94.55
46846;BME280;33947;46.804;134.252;2023-06-22T12:16:28;100383.88;;;17.64;94.03
46846;BME280;33947;46.804;134.252;2023-06-22T12:19:41;100364.22;;;17.48;93.33
46846;BME280;33947;46.804;134.252;2023-06-22T12:22:54;100388.28;;;17.65;92.63
46846;BME280;33947;46.804;134.252;2023-06-22T12:26:04;100378.34;;;17.52;93.18
46846;BME280;33947;46.804;134.252;2023-06-22T12:29:14;100319.97;;;17.09;94.30
46846;BME280;33947;46.804;134.252;2023-06-22T12:32:20;100391.25;;;17.45;94.53
46846;BME280;33947;46.804;134.252;2023-06-22T12:35:29;100375.78;;;17.34;94.99
46846;BME280;33947;46.804;134.252;2023-06-22T12:38:45;100392.03;;;17.47;95.06
46846;BME280;33947;46.804;134.252;2023-06-22T12:41:51;100386.41;;;17.52;94.35
46846;BME280;33947;46.804;134.252;2023-06-22T12:45:01;100369.78;;;17.45;93.79
46846;BME280;33947;46.804;134.252;2023-06-22T12:48:08;100391.66;;;17.53;93.81
46846;BME280;33947;46.804;134.252;2023-06-22T12:51:22;100398.69;;;17.56;93.80
46846;BME280;33947;46.804;134.252;2023-06-22T12:54:27;100398.59;;;17.57;93.61
46846;BME280;33947;46.804;134.252;2023-06-22T12:57:38;100401.47;;;17.54;93.85
46846;BME280;33947;46.804;134.252;2023-06-22T13:00:45;100402.19;;;17.42;94.52
46846;BME280;33947;46.804;134.252;2023-06-22T13:03:54;100408.88;;;17.34;94.99
46846;BME280;33947;46.804;134.252;2023-06-22T13:07:00;100403.09;;;17.26;96.18
46846;BME280;33947;46.804;134.252;2023-06-22T13:10:24;100402.97;;;17.28;95.90
46846;BME280;33947;46.804;134.252;2023-06-22T13:13:34;100396.75;;;17.27;96.00
46846;BME280;33947;46.804;134.252;2023-06-22T13:16:40;100405.66;;;17.28;95.96
46846;BME280;33947;46.804;134.252;2023-06-22T13:19:52;100382.47;;;17.11;96.10
46846;BME280;33947;46.804;134.252;2023-06-22T13:22:59;100401.06;;;17.14;96.76
46846;BME280;33947;46.804;134.252;2023-06-22T13:26:05;100389.38;;;17.15;96.58
46846;BME280;33947;46.804;134.252;2023-06-22T13:29:12;100397.09;;;17.21;96.73
46846;BME280;33947;46.804;134.252;2023-06-22T13:32:21;100392.78;;;17.18;96.07
46846;BME280;33947;46.804;134.252;2023-06-22T13:35:29;100395.63;;;17.15;96.36
46846;BME280;33947;46.804;134.252;2023-06-22T13:38:36;100380.72;;;17.10;96.63
46846;BME280;33947;46.804;134.252;2023-06-22T13:41:46;100387.75;;;17.12;96.09
46846;BME280;33947;46.804;134.252;2023-06-22T13:44:58;100372.00;;;17.06;96.26
46846;BME280;33947;46.804;134.252;2023-06-22T13:48:08;100367.59;;;17.05;95.22
46846;BME280;33947;46.804;134.252;2023-06-22T13:51:14;100360.66;;;17.01;95.30
46846;BME280;33947;46.804;134.252;2023-06-22T13:54:19;100377.81;;;17.14;95.70
46846;BME280;33947;46.804;134.252;2023-06-22T13:57:27;100348.28;;;16.98;94.71
46846;BME280;33947;46.804;134.252;2023-06-22T14:00:34;100386.72;;;16.99;95.00
46846;BME280;33947;46.804;134.252;2023-06-22T14:03:40;100380.50;;;16.98;95.09
46846;BME280;33947;46.804;134.252;2023-06-22T14:06:47;100380.06;;;17.06;95.02
46846;BME280;33947;46.804;134.252;2023-06-22T14:09:53;100378.34;;;17.05;93.90
46846;BME280;33947;46.804;134.252;2023-06-22T14:13:00;100331.38;;;16.80;93.40
46846;BME280;33947;46.804;134.252;2023-06-22T14:16:06;100358.22;;;16.80;93.67
46846;BME280;33947;46.804;134.252;2023-06-22T14:19:13;100388.75;;;16.93;94.05
46846;BME280;33947;46.804;134.252;2023-06-22T14:22:20;100389.34;;;16.83;94.73
46846;BME280;33947;46.804;134.252;2023-06-22T14:25:26;100384.25;;;16.62;96.12
46846;BME280;33947;46.804;134.252;2023-06-22T14:28:32;100393.84;;;16.66;96.54
46846;BME280;33947;46.804;134.252;2023-06-22T14:31:39;100392.81;;;16.69;96.20
46846;BME280;33947;46.804;134.252;2023-06-22T14:34:46;100388.41;;;16.68;95.56
46846;BME280;33947;46.804;134.252;2023-06-22T14:37:53;100388.31;;;16.69;95.37
46846;BME280;33947;46.804;134.252;2023-06-22T14:40:59;100391.25;;;16.81;94.78
46846;BME280;33947;46.804;134.252;2023-06-22T14:44:18;100408.75;;;16.88;94.46
46846;BME280;33947;46.804;134.252;2023-06-22T14:47:24;100364.59;;;16.61;94.64
46846;BME280;33947;46.804;134.252;2023-06-22T14:50:31;100380.25;;;16.69;94.42
46846;BME280;33947;46.804;134.252;2023-06-22T14:53:37;100395.78;;;16.80;94.44
46846;BME280;33947;46.804;134.252;2023-06-22T14:56:43;100371.06;;;16.57;94.15
46846;BME280;33947;46.804;134.252;2023-06-22T14:59:56;100389.19;;;16.70;94.61
46846;BME280;33947;46.804;134.252;2023-06-22T15:03:13;100311.00;;;16.28;94.32
46846;BME280;33947;46.804;134.252;2023-06-22T15:06:57;100367.38;;;16.60;93.84
46846;BME280;33947;46.804;134.252;2023-06-22T15:10:04;100390.81;;;16.72;94.38
46846;BME280;33947;46.804;134.252;2023-06-22T15:13:11;100369.50;;;16.53;95.29
46846;BME280;33947;46.804;134.252;2023-06-22T15:16:17;100394.47;;;16.38;96.97
46846;BME280;33947;46.804;134.252;2023-06-22T15:19:29;100399.88;;;16.54;97.69
46846;BME280;33947;46.804;134.252;2023-06-22T15:22:44;100367.91;;;16.33;97.69
46846;BME280;33947;46.804;134.252;2023-06-22T15:25:50;100396.72;;;16.45;98.08
46846;BME280;33947;46.804;134.252;2023-06-22T15:28:57;100382.09;;;16.35;97.98
46846;BME280;33947;46.804;134.252;2023-06-22T15:32:04;100402.47;;;16.55;97.96
46846;BME280;33947;46.804;134.252;2023-06-22T15:35:14;100382.72;;;16.40;98.47
46846;BME280;33947;46.804;134.252;2023-06-22T15:38:26;100399.75;;;16.39;99.96
46846;BME280;33947;46.804;134.252;2023-06-22T15:41:34;100385.00;;;16.48;99.11
46846;BME280;33947;46.804;134.252;2023-06-22T15:44:40;100382.06;;;16.53;98.86
46846;BME280;33947;46.804;134.252;2023-06-22T15:47:47;100360.16;;;16.44;98.46
46846;BME280;33947;46.804;134.252;2023-06-22T15:50:53;100363.47;;;16.49;98.47
46846;BME280;33947;46.804;134.252;2023-06-22T15:53:59;100386.81;;;16.63;98.04
46846;BME280;33947;46.804;134.252;2023-06-22T15:57:06;100374.81;;;16.55;97.31
46846;BME280;33947;46.804;134.252;2023-06-22T16:00:10;100385.34;;;16.58;98.42
46846;BME280;33947;46.804;134.252;2023-06-22T16:03:17;100346.63;;;16.30;98.21
46846;BME280;33947;46.804;134.252;2023-06-22T16:06:24;100361.44;;;16.37;98.58
46846;BME280;33947;46.804;134.252;2023-06-22T16:09:28;100385.34;;;16.58;99.17
46846;BME280;33947;46.804;134.252;2023-06-22T16:12:36;100369.63;;;16.52;98.23
46846;BME280;33947;46.804;134.252;2023-06-22T16:15:48;100386.78;;;16.47;98.87
46846;BME280;33947;46.804;134.252;2023-06-22T16:18:55;100374.66;;;16.40;99.61
46846;BME280;33947;46.804;134.252;2023-06-22T16:22:01;100384.03;;;16.49;99.34
46846;BME280;33947;46.804;134.252;2023-06-22T16:25:06;100373.66;;;16.43;99.24
46846;BME280;33947;46.804;134.252;2023-06-22T16:28:14;100368.19;;;16.44;99.05
46846;BME280;33947;46.804;134.252;2023-06-22T16:31:21;100397.97;;;16.56;98.43
46846;BME280;33947;46.804;134.252;2023-06-22T16:34:27;100316.28;;;16.13;98.07
46846;BME280;33947;46.804;134.252;2023-06-22T16:37:33;100399.38;;;16.63;97.74
46846;BME280;33947;46.804;134.252;2023-06-22T16:40:40;100365.06;;;16.36;98.24
46846;BME280;33947;46.804;134.252;2023-06-22T16:43:46;100375.63;;;16.39;98.25
46846;BME280;33947;46.804;134.252;2023-06-22T16:46:52;100367.31;;;16.28;99.01
46846;BME280;33947;46.804;134.252;2023-06-22T16:49:59;100369.53;;;16.19;99.79
46846;BME280;33947;46.804;134.252;2023-06-22T16:53:07;100388.06;;;16.40;99.69
46846;BME280;33947;46.804;134.252;2023-06-22T16:56:13;100391.84;;;16.54;98.98
46846;BME280;33947;46.804;134.252;2023-06-22T16:59:20;100353.84;;;16.29;98.16
46846;BME280;33947;46.804;134.252;2023-06-22T17:02:27;100392.97;;;16.66;97.19
46846;BME280;33947;46.804;134.252;2023-06-22T17:05:35;100384.25;;;16.62;96.58
46846;BME280;33947;46.804;134.252;2023-06-22T17:08:43;100368.91;;;16.48;97.22